createdAt,value
2023-02-17T00:00:32.820Z,295.33
2023-02-17T00:03:00.224Z,930.80
2023-02-17T00:05:27.924Z,1917.00
2023-02-17T00:07:55.212Z,3279.80
2023-02-17T00:10:23.613Z,321.00
2023-02-17T00:12:50.818Z,56.40
2023-02-17T00:15:18.175Z,792.75
2023-02-17T00:17:45.121Z,868.00
2023-02-17T00:20:12.860Z,638.00
2023-02-17T00:22:39.704Z,2445.50
2023-02-17T00:25:06.967Z,2592.60
2023-02-17T00:27:35.417Z,2547.00
2023-02-17T00:30:02.258Z,2422.40
2023-02-17T00:32:29.184Z,1750.00
2023-02-17T00:34:56.088Z,3387.00
2023-02-17T00:37:23.685Z,3356.50
2023-02-17T00:39:50.832Z,2713.20
2023-02-17T00:42:17.651Z,3353.40
2023-02-17T00:44:45.912Z,3066.25
2023-02-17T00:47:12.828Z,3719.60
2023-02-17T00:49:39.737Z,2533.75
2023-02-17T00:52:06.637Z,2338.60
2023-02-17T00:54:33.534Z,2860.80
2023-02-17T00:57:00.640Z,2002.80
2023-02-17T00:59:27.723Z,2622.25
2023-02-17T01:01:56.035Z,2359.40
2023-02-17T01:04:23.265Z,3052.20
2023-02-17T01:06:50.253Z,3408.75
2023-02-17T01:09:17.132Z,2379.40
2023-02-17T01:11:44.568Z,2716.50
2023-02-17T01:14:14.508Z,1217.40
2023-02-17T01:16:44.776Z,2171.25
2023-02-17T01:19:15.742Z,2679.80
2023-02-17T01:21:42.916Z,2213.40
2023-02-17T01:24:12.048Z,2488.00
2023-02-17T01:26:40.069Z,158.00
2023-02-17T01:29:07.917Z,1280.40
2023-02-17T01:31:35.211Z,2716.25
2023-02-17T01:34:04.086Z,1896.25
2023-02-17T01:36:32.948Z,2927.80
2023-02-17T01:39:00.908Z,2966.50
2023-02-17T01:41:28.488Z,1486.40
2023-02-17T01:44:06.921Z,1720.75
2023-02-17T01:46:34.533Z,1914.00
2023-02-17T01:49:03.427Z,1988.60
2023-02-17T01:51:34.916Z,314.00
2023-02-17T01:54:05.942Z,2456.75
2023-02-17T01:56:38.518Z,2430.20
2023-02-17T01:59:10.224Z,2288.20
2023-02-17T02:01:37.709Z,3160.40
2023-02-17T02:04:06.833Z,1624.00
2023-02-17T02:06:38.816Z,1110.75
2023-02-17T02:09:09.384Z,1899.00
2023-02-17T02:11:36.598Z,2280.50
2023-02-17T02:14:07.252Z,2913.20
2023-02-17T02:16:42.017Z,3384.00
2023-02-17T02:19:27.576Z,2547.25
2023-02-17T02:22:15.980Z,1539.20
2023-02-17T02:24:59.838Z,501.20
2023-02-17T02:27:42.365Z,726.20
2023-02-17T02:30:45.219Z,1401.60
2023-02-17T02:33:22.404Z,2871.40
2023-02-17T02:35:59.011Z,2067.60
2023-02-17T02:38:31.843Z,3243.80
2023-02-17T02:41:04.948Z,1066.80
2023-02-17T02:43:32.709Z,2219.60
2023-02-17T02:45:59.491Z,437.20
2023-02-17T02:48:27.870Z,1789.40
2023-02-17T02:51:05.494Z,1489.80
2023-02-17T02:54:17.066Z,3467.40
2023-02-17T02:56:57.976Z,2809.20
2023-02-17T02:59:42.113Z,2225.00
2023-02-17T03:02:17.413Z,2993.50
2023-02-17T03:04:53.314Z,2660.75
2023-02-17T03:07:24.975Z,1477.20
2023-02-17T03:09:55.109Z,2199.00
2023-02-17T03:12:23.484Z,3370.00
2023-02-17T03:14:55.585Z,1543.40
2023-02-17T03:17:22.719Z,318.50
2023-02-17T03:19:51.283Z,2099.00
2023-02-17T03:22:23.931Z,2137.40
2023-02-17T03:24:51.047Z,2073.00
2023-02-17T03:27:17.984Z,2642.00
2023-02-17T03:29:45.350Z,2683.20
2023-02-17T03:32:12.602Z,1174.40
2023-02-17T03:34:39.552Z,2500.75
2023-02-17T03:37:07.835Z,1183.00
2023-02-17T03:39:34.778Z,2367.00
2023-02-17T03:42:03.134Z,1504.40
2023-02-17T03:44:30.200Z,3764.75
2023-02-17T03:46:57.024Z,3014.75
2023-02-17T03:49:24.068Z,1583.25
2023-02-17T03:51:51.242Z,2573.75
2023-02-17T03:54:19.767Z,1531.50
2023-02-17T03:56:46.469Z,45.50
2023-02-17T03:59:13.866Z,1867.60
2023-02-17T04:01:41.082Z,3018.60
2023-02-17T04:04:08.300Z,2210.40
2023-02-17T04:06:35.451Z,2423.40
2023-02-17T04:09:03.021Z,1180.50
2023-02-17T04:11:31.210Z,803.33
2023-02-17T04:13:58.399Z,438.00
2023-02-17T04:16:25.296Z,810.80
2023-02-17T04:18:52.194Z,506.00
2023-02-17T04:21:18.955Z,1176.40
2023-02-17T04:23:45.867Z,283.40
2023-02-17T04:26:12.641Z,486.00
2023-02-17T04:28:42.539Z,567.50
2023-02-17T04:31:09.929Z,2269.50
2023-02-17T04:33:37.217Z,1928.20
2023-02-17T04:36:05.112Z,2170.60
2023-02-17T04:38:33.551Z,1201.25
2023-02-17T04:41:02.071Z,1015.20
2023-02-17T04:43:29.214Z,2110.50
2023-02-17T04:45:58.552Z,3341.40
2023-02-17T04:48:26.479Z,3258.00
2023-02-17T04:50:53.867Z,721.60
2023-02-17T04:53:20.744Z,3064.80
2023-02-17T04:55:49.055Z,3044.40
2023-02-17T04:58:15.957Z,116.00
2023-02-17T05:00:42.708Z,3223.75
2023-02-17T05:03:10.965Z,2109.25
2023-02-17T05:05:38.076Z,3495.25
2023-02-17T05:08:06.695Z,3793.20
2023-02-17T05:10:33.822Z,2953.60
2023-02-17T05:13:01.006Z,3011.00
2023-02-17T05:15:27.808Z,3401.00
2023-02-17T05:17:54.917Z,91.50
2023-02-17T05:20:23.551Z,2687.40
2023-02-17T05:22:50.391Z,2870.00
2023-02-17T05:25:17.577Z,2796.40
2023-02-17T05:27:44.656Z,2022.50
2023-02-17T05:30:12.420Z,3033.00
2023-02-17T05:32:39.589Z,3336.40
2023-02-17T05:35:07.444Z,3018.25
2023-02-17T05:37:36.166Z,59.75
2023-02-17T05:40:03.618Z,3465.50
2023-02-17T05:42:30.619Z,3382.00
2023-02-17T05:44:57.474Z,3298.60
2023-02-17T05:47:27.292Z,3400.00
2023-02-17T05:49:54.787Z,3456.40
2023-02-17T05:52:21.942Z,3338.80
2023-02-17T05:54:50.421Z,3767.25
2023-02-17T05:57:17.568Z,2575.25
2023-02-17T05:59:44.304Z,1079.50
2023-02-17T06:02:11.188Z,3030.00
2023-02-17T06:04:38.436Z,3495.40
2023-02-17T06:07:05.378Z,3584.75
2023-02-17T06:09:32.212Z,3751.00
2023-02-17T06:12:00.610Z,3371.80
2023-02-17T06:14:27.780Z,2774.20
2023-02-17T06:16:54.634Z,3468.80
2023-02-17T06:19:21.789Z,3749.40
2023-02-17T06:21:48.686Z,3746.00
2023-02-17T06:24:15.514Z,3277.75
2023-02-17T06:26:42.415Z,3736.00
2023-02-17T06:29:10.784Z,2803.00
2023-02-17T06:31:37.910Z,3366.50
2023-02-17T06:34:06.635Z,3032.20
2023-02-17T06:36:34.126Z,3307.80
2023-02-17T06:39:00.980Z,2744.75
2023-02-17T06:41:28.069Z,3385.50
2023-02-17T06:43:55.086Z,3021.00
2023-02-17T06:46:23.616Z,867.60
2023-02-17T06:48:50.938Z,2279.20
2023-02-17T06:51:18.145Z,2369.80
2023-02-17T06:53:44.875Z,1889.00
2023-02-17T06:56:12.290Z,2788.40
2023-02-17T06:58:39.428Z,59.75
2023-02-17T07:01:06.187Z,3101.50
2023-02-17T07:03:34.370Z,3458.20
2023-02-17T07:06:01.291Z,2539.00
2023-02-17T07:08:28.407Z,2731.25
2023-02-17T07:10:55.388Z,3387.60
2023-02-17T07:13:22.584Z,3015.25
2023-02-17T07:15:49.649Z,3288.50
2023-02-17T07:18:16.539Z,2286.50
2023-02-17T07:20:44.870Z,2078.80
2023-02-17T07:23:11.747Z,2793.25
2023-02-17T07:25:38.921Z,3135.60
2023-02-17T07:28:05.698Z,1613.75
2023-02-17T07:30:32.575Z,1920.20
2023-02-17T07:32:59.343Z,2349.00
2023-02-17T07:35:26.193Z,1130.80
2023-02-17T07:37:57.412Z,2777.40
2023-02-17T07:40:25.013Z,781.60
2023-02-17T07:42:51.845Z,3135.00
2023-02-17T07:45:19.169Z,1168.75
2023-02-17T07:47:46.477Z,1900.80
2023-02-17T07:50:13.507Z,2780.00
2023-02-17T07:52:40.622Z,1841.00
2023-02-17T07:55:09.791Z,1693.60
2023-02-17T07:57:36.840Z,309.25
2023-02-17T08:00:04.945Z,974.50
2023-02-17T08:02:32.118Z,2204.00
2023-02-17T08:04:58.918Z,1528.00
2023-02-17T08:07:26.183Z,280.67
2023-02-17T08:09:52.970Z,515.75
2023-02-17T08:12:21.852Z,227.50
2023-02-17T08:14:48.793Z,26.50
2023-02-17T08:17:15.644Z,2518.00
2023-02-17T08:19:48.609Z,2547.20
2023-02-17T08:22:16.051Z,1620.50
2023-02-17T08:24:43.148Z,1237.80
2023-02-17T08:27:10.283Z,769.75
2023-02-17T08:29:38.629Z,41.00
2023-02-17T08:32:05.554Z,3192.80
2023-02-17T08:34:32.464Z,1164.00
2023-02-17T08:36:59.554Z,869.50
2023-02-17T08:39:26.879Z,2816.40
2023-02-17T08:41:54.103Z,1066.00
2023-02-17T08:44:21.552Z,1508.50
2023-02-17T08:46:51.646Z,2019.00
2023-02-17T08:49:21.471Z,667.50
2023-02-17T08:51:48.433Z,488.75
2023-02-17T08:54:15.553Z,23.25
2023-02-17T08:56:43.892Z,14.50
2023-02-17T08:59:11.963Z,16.00
2023-02-17T09:01:39.737Z,1301.20
2023-02-17T09:04:10.884Z,3569.50
2023-02-17T09:06:41.278Z,1180.80
2023-02-17T09:09:10.693Z,2175.80
2023-02-17T09:11:37.890Z,659.50
2023-02-17T09:14:07.109Z,1890.80
2023-02-17T09:16:34.501Z,1773.60
2023-02-17T09:19:01.520Z,621.67
2023-02-17T09:21:30.017Z,1310.50
2023-02-17T09:23:57.361Z,2333.00
2023-02-17T09:26:24.263Z,1805.80
2023-02-17T09:28:51.194Z,2111.80
2023-02-17T09:31:20.788Z,1419.25
2023-02-17T09:33:48.927Z,3577.00
2023-02-17T09:36:20.421Z,2383.80
2023-02-17T09:38:49.165Z,628.00
2023-02-17T09:41:21.023Z,1030.50
2023-02-17T09:43:48.747Z,404.50
2023-02-17T09:46:21.917Z,381.50
2023-02-17T09:48:51.396Z,44.50
2023-02-17T09:51:27.186Z,22.50
2023-02-17T09:54:03.170Z,589.50
2023-02-17T09:56:34.233Z,44.00
2023-02-17T09:59:03.995Z,1502.25
2023-02-17T10:01:33.249Z,1767.75
2023-02-17T10:04:06.147Z,783.00
2023-02-17T10:06:36.131Z,2175.75
2023-02-17T10:09:13.472Z,1914.25
2023-02-17T10:11:47.814Z,689.60
2023-02-17T10:14:22.437Z,3163.00
2023-02-17T10:16:55.067Z,2245.60
2023-02-17T10:19:29.222Z,1329.40
2023-02-17T10:22:06.190Z,1454.00
2023-02-17T10:24:34.480Z,2837.20
2023-02-17T10:27:15.228Z,2565.20
2023-02-17T10:29:57.598Z,74.40
2023-02-17T10:32:26.084Z,2091.20
2023-02-17T10:35:15.103Z,2651.50
2023-02-17T10:37:47.971Z,211.60
2023-02-17T10:40:21.160Z,788.40
2023-02-17T10:42:50.734Z,1662.60
2023-02-17T10:45:26.327Z,1054.40
2023-02-17T10:47:58.333Z,57.20
2023-02-17T10:50:26.609Z,1953.20
2023-02-17T10:52:55.280Z,1314.80
2023-02-17T10:55:31.802Z,1690.40
2023-02-17T10:58:05.000Z,1751.60
2023-02-17T11:00:32.589Z,1523.80
2023-02-17T11:02:59.567Z,1997.50
2023-02-17T11:05:29.601Z,2285.80
2023-02-17T11:08:00.905Z,1950.20
2023-02-17T11:10:31.724Z,2300.40
2023-02-17T11:12:59.779Z,1010.60
2023-02-17T11:15:31.621Z,3005.00
2023-02-17T11:18:01.402Z,1934.60
2023-02-17T11:20:34.766Z,944.80
2023-02-17T11:23:06.239Z,1728.60
2023-02-17T11:25:36.205Z,1166.80
2023-02-17T11:28:06.040Z,1248.80
2023-02-17T11:30:35.484Z,1827.00
2023-02-17T11:33:12.608Z,1225.60
2023-02-17T11:35:50.096Z,2191.00
2023-02-17T11:38:20.040Z,1734.50
2023-02-17T11:40:57.686Z,1951.00
2023-02-17T11:43:25.260Z,772.60
2023-02-17T11:46:06.819Z,2782.50
2023-02-17T11:49:10.462Z,323.60
2023-02-17T11:51:51.993Z,216.80
2023-02-17T11:54:26.218Z,266.00
2023-02-17T11:57:02.628Z,3282.60
2023-02-17T11:59:49.692Z,3408.40
2023-02-17T12:02:24.533Z,3614.80
2023-02-17T12:05:02.298Z,2551.60
2023-02-17T12:07:39.809Z,3142.60
2023-02-17T12:10:16.906Z,3338.80
2023-02-17T12:12:58.808Z,3058.00
2023-02-17T12:15:39.285Z,3337.40
2023-02-17T12:18:22.469Z,145.60
2023-02-17T12:20:57.765Z,3116.80
2023-02-17T12:24:01.066Z,3612.00
2023-02-17T12:26:36.811Z,3663.00
2023-02-17T12:29:20.625Z,3298.20
2023-02-17T12:32:10.525Z,3523.40
2023-02-17T12:34:42.581Z,3064.20
2023-02-17T12:37:18.530Z,3629.40
2023-02-17T12:39:52.138Z,3676.20
2023-02-17T12:42:24.795Z,3421.40
2023-02-17T12:44:59.791Z,169.40
2023-02-17T12:47:32.553Z,242.40
2023-02-17T12:50:05.598Z,3332.20
2023-02-17T12:52:37.317Z,3015.00
2023-02-17T12:55:13.076Z,3685.00
2023-02-17T12:57:46.658Z,3343.00
2023-02-17T13:00:22.009Z,2667.40
2023-02-17T13:02:49.584Z,3719.25
2023-02-17T13:05:24.585Z,2240.20
2023-02-17T13:08:00.041Z,3717.25
2023-02-17T13:10:34.217Z,3230.60
2023-02-17T13:13:07.307Z,168.75
2023-02-17T13:15:39.021Z,3112.20
2023-02-17T13:18:08.560Z,3422.50
2023-02-17T13:20:51.669Z,3738.20
2023-02-17T13:23:35.314Z,3746.40
2023-02-17T13:26:36.079Z,3752.80
2023-02-17T13:29:18.500Z,3760.00
2023-02-17T13:31:50.823Z,3774.40
2023-02-17T13:34:32.924Z,3484.00
2023-02-17T13:37:03.326Z,3705.80
2023-02-17T13:39:34.076Z,3726.80
2023-02-17T13:42:01.964Z,3710.00
2023-02-17T13:44:31.103Z,3591.20
2023-02-17T13:47:02.604Z,3521.40
2023-02-17T13:49:31.478Z,3655.40
2023-02-17T13:52:08.619Z,3289.50
2023-02-17T13:54:35.772Z,3368.60
2023-02-17T13:57:02.752Z,3660.20
2023-02-17T13:59:29.857Z,2999.20
2023-02-17T14:01:56.808Z,3653.80
2023-02-17T14:04:28.227Z,2960.50
2023-02-17T14:06:58.381Z,3684.20
2023-02-17T14:09:27.950Z,2978.60
2023-02-17T14:11:56.172Z,3305.00
2023-02-17T14:14:26.232Z,2193.20
2023-02-17T14:16:59.671Z,2284.60
2023-02-17T14:19:28.426Z,83.20
2023-02-17T14:22:02.946Z,2525.75
2023-02-17T14:24:31.887Z,3687.40
2023-02-17T14:27:01.191Z,3703.25
2023-02-17T14:29:39.695Z,3709.25
2023-02-17T14:32:06.903Z,3728.00
2023-02-17T14:34:37.158Z,2315.80
2023-02-17T14:37:17.924Z,3728.00
2023-02-17T14:39:45.016Z,3173.80
2023-02-17T14:42:12.179Z,97.00
2023-02-17T14:44:39.864Z,3751.00
2023-02-17T14:47:07.047Z,3734.00
2023-02-17T14:49:35.456Z,3743.67
2023-02-17T14:52:18.702Z,119.20
2023-02-17T14:54:45.706Z,3738.25
2023-02-17T14:57:14.616Z,3738.20
2023-02-17T14:59:42.454Z,3732.00
2023-02-17T15:02:18.957Z,3730.25
2023-02-17T15:04:47.444Z,3719.60
2023-02-17T15:07:17.267Z,3515.20
2023-02-17T15:09:45.914Z,3731.40
2023-02-17T15:12:15.662Z,3752.25
2023-02-17T15:14:42.563Z,3726.80
2023-02-17T15:17:10.823Z,3659.60
2023-02-17T15:19:38.457Z,3746.25
2023-02-17T15:22:07.031Z,3662.00
2023-02-17T15:24:35.424Z,3652.00
2023-02-17T15:27:03.194Z,3298.50
2023-02-17T15:29:30.572Z,3412.20
2023-02-17T15:32:01.096Z,3548.20
2023-02-17T15:34:32.324Z,3081.20
2023-02-17T15:37:00.308Z,3751.00
2023-02-17T15:39:28.920Z,3377.00
2023-02-17T15:42:00.580Z,3743.00
2023-02-17T15:44:35.382Z,3379.60
2023-02-17T15:47:02.446Z,3585.00
2023-02-17T15:49:29.465Z,3744.25
2023-02-17T15:51:56.739Z,3784.25
2023-02-17T15:54:23.612Z,3327.40
2023-02-17T15:56:53.860Z,3578.25
2023-02-17T15:59:23.531Z,3788.50
2023-02-17T16:01:50.551Z,3415.20
2023-02-17T16:04:18.172Z,3777.50
2023-02-17T16:06:45.125Z,3771.50
2023-02-17T16:09:12.191Z,3752.80
2023-02-17T16:11:47.736Z,3754.50
2023-02-17T16:14:24.264Z,3788.50
2023-02-17T16:16:51.388Z,3767.00
2023-02-17T16:19:18.528Z,3801.25
2023-02-17T16:21:47.163Z,3767.25
2023-02-17T16:24:14.285Z,3771.25
2023-02-17T16:26:42.341Z,3782.00
2023-02-17T16:29:14.378Z,3784.25
2023-02-17T16:31:43.094Z,3783.40
2023-02-17T16:34:15.800Z,3796.75
2023-02-17T16:36:42.935Z,3793.60
2023-02-17T16:39:13.594Z,3811.50
2023-02-17T16:41:41.831Z,3796.67
2023-02-17T16:44:13.219Z,3811.50
2023-02-17T16:46:48.260Z,3805.25
2023-02-17T16:49:24.580Z,3786.25
2023-02-17T16:51:52.006Z,3805.67
2023-02-17T16:54:19.002Z,3788.50
2023-02-17T16:56:48.387Z,3786.25
2023-02-17T16:59:16.257Z,3812.00
2023-02-17T17:01:43.305Z,3794.50
2023-02-17T17:04:11.811Z,3820.50
2023-02-17T17:06:43.132Z,3794.50
2023-02-17T17:09:16.029Z,3803.50
2023-02-17T17:11:43.068Z,3805.50
2023-02-17T17:14:10.207Z,3786.25
2023-02-17T17:16:37.933Z,3811.50
2023-02-17T17:19:05.131Z,3803.50
2023-02-17T17:21:33.721Z,3802.67
2023-02-17T17:24:00.633Z,3820.50
2023-02-17T17:26:32.040Z,3813.80
2023-02-17T17:28:59.453Z,3817.40
2023-02-17T17:31:26.925Z,3819.20
2023-02-17T17:33:54.040Z,3812.00
2023-02-17T17:36:24.393Z,3803.50
2023-02-17T17:38:54.195Z,3805.67
2023-02-17T17:41:22.410Z,3810.20
2023-02-17T17:43:49.329Z,3801.25
2023-02-17T17:46:18.496Z,3803.50
2023-02-17T17:48:45.874Z,3819.67
2023-02-17T17:51:15.340Z,3799.25
2023-02-17T17:53:42.876Z,3803.50
2023-02-17T17:56:14.348Z,3803.50
2023-02-17T17:58:41.203Z,3822.67
2023-02-17T18:01:08.053Z,3810.20
2023-02-17T18:03:35.100Z,3805.50
2023-02-17T18:06:02.574Z,3813.75
2023-02-17T18:08:30.728Z,3794.50
2023-02-17T18:10:58.049Z,3803.80
2023-02-17T18:13:27.711Z,3819.20
2023-02-17T18:15:55.123Z,3795.00
2023-02-17T18:18:22.849Z,3793.20
2023-02-17T18:20:49.637Z,3795.00
2023-02-17T18:23:16.749Z,3810.20
2023-02-17T18:25:43.591Z,3819.20
2023-02-17T18:28:10.751Z,3819.20
2023-02-17T18:30:39.023Z,3803.80
2023-02-17T18:33:06.010Z,3819.20
2023-02-17T18:35:34.861Z,3817.40
2023-02-17T18:38:02.014Z,3810.20
2023-02-17T18:40:29.113Z,3831.60
2023-02-17T18:42:56.470Z,3822.75
2023-02-17T18:45:23.581Z,3828.20
2023-02-17T18:47:51.767Z,3821.00
2023-02-17T18:50:19.468Z,3838.00
2023-02-17T18:52:46.840Z,3836.40
2023-02-17T18:55:15.046Z,3821.00
2023-02-17T18:57:42.408Z,3817.40
2023-02-17T19:00:11.485Z,3819.20
2023-02-17T19:02:38.834Z,3821.00
2023-02-17T19:05:08.703Z,3834.60
2023-02-17T19:07:35.793Z,3835.50
2023-02-17T19:10:02.761Z,3829.50
2023-02-17T19:12:29.859Z,3813.75
2023-02-17T19:14:57.000Z,3830.00
2023-02-17T19:17:24.868Z,3807.60
2023-02-17T19:19:52.521Z,3828.20
2023-02-17T19:22:20.748Z,3835.50
2023-02-17T19:24:51.443Z,3822.67
2023-02-17T19:27:18.512Z,3843.60
2023-02-17T19:29:45.404Z,3805.80
2023-02-17T19:32:12.584Z,3837.75
2023-02-17T19:34:39.738Z,3852.40
2023-02-17T19:37:06.825Z,3819.20
2023-02-17T19:39:36.050Z,3821.00
2023-02-17T19:42:03.760Z,3812.40
2023-02-17T19:44:31.180Z,3819.20
2023-02-17T19:46:58.766Z,3821.00
2023-02-17T19:49:25.643Z,3795.00
2023-02-17T19:51:52.642Z,3843.60
2023-02-17T19:54:19.696Z,3817.80
2023-02-17T19:56:47.837Z,3828.20
2023-02-17T19:59:14.595Z,3828.20
2023-02-17T20:01:43.284Z,3828.20
2023-02-17T20:04:10.352Z,3829.50
2023-02-17T20:06:40.335Z,3819.20
2023-02-17T20:09:09.912Z,3806.80
2023-02-17T20:11:37.009Z,3829.50
2023-02-17T20:14:05.336Z,3821.00
2023-02-17T20:16:32.235Z,3821.00
2023-02-17T20:19:01.276Z,3803.80
2023-02-17T20:21:30.442Z,3810.20
2023-02-17T20:23:58.444Z,3810.20
2023-02-17T20:26:27.550Z,3819.20
2023-02-17T20:28:55.656Z,3810.20
2023-02-17T20:31:26.051Z,3821.00
2023-02-17T20:33:53.523Z,3821.00
2023-02-17T20:36:20.654Z,3785.00
2023-02-17T20:38:48.667Z,3786.80
2023-02-17T20:41:18.067Z,3800.40
2023-02-17T20:43:44.902Z,3794.75
2023-02-17T20:46:14.325Z,3786.80
2023-02-17T20:48:43.151Z,3783.40
2023-02-17T20:51:10.020Z,3786.80
2023-02-17T20:53:36.908Z,3786.80
2023-02-17T20:56:12.227Z,3760.00
2023-02-17T20:58:39.098Z,3775.25
2023-02-17T21:01:07.445Z,3766.40
2023-02-17T21:03:34.244Z,3768.00
2023-02-17T21:06:05.536Z,3300.50
2023-02-17T21:08:33.080Z,3756.20
2023-02-17T21:11:00.204Z,3775.25
2023-02-17T21:13:29.029Z,3749.40
2023-02-17T21:15:56.581Z,3752.75
2023-02-17T21:18:23.651Z,3697.00
2023-02-17T21:20:50.964Z,3102.80
2023-02-17T21:23:19.358Z,3776.20
2023-02-17T21:25:46.589Z,3740.00
2023-02-17T21:28:15.817Z,3761.25
2023-02-17T21:30:46.041Z,3752.80
2023-02-17T21:33:13.077Z,3758.20
2023-02-17T21:35:40.008Z,3544.00
2023-02-17T21:38:06.947Z,3751.00
2023-02-17T21:40:35.116Z,3730.00
2023-02-17T21:43:02.422Z,3104.60
2023-02-17T21:45:29.454Z,3767.25
2023-02-17T21:47:56.649Z,3744.25
2023-02-17T21:50:24.000Z,3752.80
2023-02-17T21:52:50.865Z,3621.00
2023-02-17T21:55:17.976Z,3557.00
2023-02-17T21:57:46.768Z,3719.60
2023-02-17T22:00:15.411Z,3768.00
2023-02-17T22:02:44.241Z,3725.75
2023-02-17T22:05:11.774Z,3754.50
2023-02-17T22:07:38.686Z,3748.75
2023-02-17T22:10:07.333Z,3742.25
2023-02-17T22:12:35.508Z,3750.25
2023-02-17T22:15:05.194Z,3752.80
2023-02-17T22:17:32.119Z,3735.00
2023-02-17T22:19:59.163Z,3752.80
2023-02-17T22:22:26.302Z,3749.40
2023-02-17T22:24:53.103Z,3751.00
2023-02-17T22:27:20.269Z,3400.00
2023-02-17T22:29:47.322Z,3717.00
2023-02-17T22:32:15.754Z,3679.60
2023-02-17T22:34:42.537Z,3585.00
2023-02-17T22:37:09.338Z,3396.75
2023-02-17T22:39:36.163Z,3750.50
2023-02-17T22:42:03.295Z,3395.00
2023-02-17T22:44:30.508Z,3783.40
2023-02-17T22:46:57.601Z,3744.25
2023-02-17T22:49:25.865Z,3752.80
2023-02-17T22:51:52.724Z,3766.40
2023-02-17T22:54:19.525Z,3488.25
2023-02-17T22:56:46.496Z,3752.25
2023-02-17T22:59:13.672Z,3397.25
2023-02-17T23:01:40.837Z,3608.20
2023-02-17T23:04:08.002Z,3765.50
2023-02-17T23:06:37.531Z,3751.00
2023-02-17T23:09:05.466Z,3752.25
2023-02-17T23:11:36.372Z,2944.50
2023-02-17T23:14:03.468Z,3766.40
2023-02-17T23:16:30.625Z,3713.80
2023-02-17T23:18:57.491Z,3775.25
2023-02-17T23:21:24.197Z,3460.20
2023-02-17T23:23:52.647Z,3026.80
2023-02-17T23:26:19.804Z,3771.50
2023-02-17T23:28:46.572Z,3777.50
2023-02-17T23:31:13.445Z,3537.40
2023-02-17T23:33:40.608Z,3768.00
2023-02-17T23:36:09.342Z,3578.00
2023-02-17T23:38:36.438Z,3748.75
2023-02-17T23:41:04.896Z,3384.60
2023-02-17T23:43:32.187Z,3760.00
2023-02-17T23:45:59.331Z,3258.40
2023-02-17T23:48:26.680Z,3776.20
2023-02-17T23:50:56.846Z,3557.00
2023-02-17T23:53:24.215Z,3468.00
2023-02-17T23:56:01.046Z,3775.25
2023-02-17T23:58:29.732Z,3563.00
